Time;durP1;ratioP1;P1;durP2;ratioP2;P2;SDS_P1;SDS_P2;PMS_P1;PMS_P2;Temp;Humidity;BMP_temperature;BMP_pressure;BME280_temperature;BME280_humidity;BME280_pressure;Samples;Min_cycle;Max_cycle;Signal;HPM_P1;HPM_P2
2021/05/15 00:01:33;;;;;;;1.20;0.80;;;13.80;99.90;;;;;;5067774;28;20227;-60
2021/05/15 00:03:58;;;;;;;1.57;0.90;;;13.70;99.90;;;;;;5074785;28;20740;-60
2021/05/15 00:06:26;;;;;;;2.63;1.20;;;13.70;99.90;;;;;;5074883;28;20218;-61
2021/05/15 00:08:52;;;;;;;1.77;1.13;;;13.80;99.90;;;;;;5074494;28;20577;-61
2021/05/15 00:11:18;;;;;;;1.10;1.00;;;13.90;99.90;;;;;;5074057;28;20407;-61
2021/05/15 00:13:47;;;;;;;1.07;0.90;;;13.80;99.90;;;;;;5074435;28;20199;-60
2021/05/15 00:16:13;;;;;;;1.50;1.17;;;13.60;99.90;;;;;;5074852;28;20625;-59
2021/05/15 00:18:39;;;;;;;1.27;0.73;;;13.50;99.90;;;;;;5075084;28;20739;-61
2021/05/15 00:21:06;;;;;;;1.40;1.23;;;13.60;99.90;;;;;;5074968;28;20405;-61
2021/05/15 00:23:31;;;;;;;1.57;0.80;;;13.70;99.90;;;;;;5074130;28;20435;-61
2021/05/15 00:25:59;;;;;;;5.53;1.00;;;13.70;99.90;;;;;;5074100;28;20412;-60
2021/05/15 00:28:25;;;;;;;1.93;1.00;;;13.50;99.90;;;;;;5074448;28;20166;-60
2021/05/15 00:30:51;;;;;;;1.73;1.20;;;13.50;99.90;;;;;;5074339;28;20438;-60
2021/05/15 00:33:16;;;;;;;1.07;0.83;;;13.50;99.90;;;;;;5074436;28;20428;-59
2021/05/15 00:35:42;;;;;;;1.27;0.80;;;13.50;99.90;;;;;;5074194;28;20162;-62
2021/05/15 00:38:07;;;;;;;1.60;1.00;;;13.50;99.90;;;;;;5073831;28;20161;-60
2021/05/15 00:40:33;;;;;;;0.90;0.80;;;13.50;99.90;;;;;;5073724;28;20276;-61
2021/05/15 00:42:58;;;;;;;1.57;0.90;;;13.40;99.90;;;;;;5074051;28;20164;-60
2021/05/15 00:45:24;;;;;;;1.40;1.10;;;13.30;99.90;;;;;;5076462;28;20201;-59
2021/05/15 00:47:50;;;;;;;2.80;1.03;;;13.30;99.90;;;;;;5073995;28;20178;-59
2021/05/15 00:50:15;;;;;;;0.90;0.70;;;13.10;99.90;;;;;;5074221;28;20200;-61
2021/05/15 00:52:41;;;;;;;1.40;1.00;;;13.10;99.90;;;;;;5074109;28;20176;-62
2021/05/15 00:55:12;;;;;;;1.10;0.80;;;13.00;99.90;;;;;;5073499;28;20288;-60
2021/05/15 00:57:39;;;;;;;1.57;0.90;;;12.80;99.90;;;;;;5073715;28;20404;-61
2021/05/15 01:00:07;;;;;;;1.07;0.70;;;12.80;99.90;;;;;;5072707;28;20400;-60
2021/05/15 01:02:33;;;;;;;0.87;0.80;;;12.90;99.90;;;;;;5053864;28;20403;-62
2021/05/15 01:04:59;;;;;;;1.17;0.83;;;13.00;99.90;;;;;;5081960;23;20476;-60
2021/05/15 01:07:24;;;;;;;1.40;1.30;;;12.90;99.90;;;;;;5073289;28;20168;-60
2021/05/15 01:09:50;;;;;;;1.63;0.90;;;12.80;99.90;;;;;;5073128;28;20158;-60
2021/05/15 01:12:15;;;;;;;1.40;0.83;;;12.80;99.90;;;;;;5072971;28;20170;-59
2021/05/15 01:14:42;;;;;;;1.30;0.90;;;12.80;99.90;;;;;;5073105;28;20235;-58
2021/05/15 01:17:09;;;;;;;1.40;1.10;;;12.90;99.90;;;;;;5073117;28;20168;-58
2021/05/15 01:19:35;;;;;;;0.80;0.70;;;13.00;99.90;;;;;;5073377;28;20501;-60
2021/05/15 01:22:05;;;;;;;1.37;1.00;;;13.00;99.90;;;;;;5073408;28;20402;-60
2021/05/15 01:24:31;;;;;;;1.20;0.90;;;12.90;99.90;;;;;;5072917;28;20421;-60
2021/05/15 01:26:56;;;;;;;2.30;1.17;;;12.80;99.90;;;;;;5072753;28;20420;-61
2021/05/15 01:29:22;;;;;;;0.93;0.73;;;12.70;99.90;;;;;;5073310;28;20180;-61
2021/05/15 01:31:48;;;;;;;2.30;1.00;;;12.60;99.90;;;;;;5073222;28;20178;-61
2021/05/15 01:34:13;;;;;;;1.50;0.93;;;12.60;99.90;;;;;;5072890;28;20281;-60
2021/05/15 01:36:40;;;;;;;1.57;0.90;;;12.70;99.90;;;;;;5073531;28;20158;-60
2021/05/15 01:39:09;;;;;;;1.30;1.00;;;12.60;99.90;;;;;;5054794;28;20166;-61
2021/05/15 01:41:34;;;;;;;1.10;1.00;;;12.50;99.90;;;;;;5072736;28;20397;-61
2021/05/15 01:44:00;;;;;;;1.13;0.90;;;12.60;99.90;;;;;;5072891;28;20511;-61
2021/05/15 01:46:26;;;;;;;1.27;0.80;;;12.70;99.90;;;;;;5072900;28;20227;-61
2021/05/15 01:48:51;;;;;;;1.30;1.13;;;12.80;99.90;;;;;;5073308;28;20688;-60
2021/05/15 01:51:17;;;;;;;1.43;1.07;;;12.70;99.90;;;;;;5072907;28;20587;-61
2021/05/15 01:53:52;;;;;;;1.03;0.93;;;12.60;99.90;;;;;;5072749;28;20657;-61
2021/05/15 01:56:24;;;;;;;1.50;1.00;;;12.60;99.90;;;;;;5065845;28;20178;-61
2021/05/15 01:58:51;;;;;;;1.47;0.90;;;12.70;99.90;;;;;;5060443;28;20416;-61
2021/05/15 02:01:17;;;;;;;2.20;0.90;;;12.50;99.90;;;;;;5063514;28;20491;-59
2021/05/15 02:03:44;;;;;;;2.07;1.07;;;12.50;99.90;;;;;;5072520;28;20479;-60
2021/05/15 02:06:10;;;;;;;1.80;1.07;;;12.40;99.90;;;;;;5072999;28;20430;-61
2021/05/15 02:08:36;;;;;;;1.30;1.00;;;12.50;99.90;;;;;;5072501;28;20444;-59
2021/05/15 02:11:03;;;;;;;1.53;0.90;;;12.40;99.90;;;;;;5072861;28;20356;-59
2021/05/15 02:13:30;;;;;;;1.10;0.97;;;12.50;99.90;;;;;;5072785;28;20796;-61
2021/05/15 02:15:57;;;;;;;1.20;0.80;;;12.60;99.90;;;;;;5074432;28;20407;-61
2021/05/15 02:18:23;;;;;;;1.37;0.80;;;12.40;99.90;;;;;;5076630;28;20411;-61
2021/05/15 02:20:50;;;;;;;0.93;0.83;;;12.20;99.90;;;;;;5076649;28;20795;-61
2021/05/15 02:23:16;;;;;;;3.83;1.00;;;12.10;99.90;;;;;;5076312;28;20538;-61
2021/05/15 02:25:41;;;;;;;1.23;1.13;;;12.10;99.90;;;;;;5076279;28;20408;-61
2021/05/15 02:28:07;;;;;;;1.20;1.10;;;12.10;99.90;;;;;;5076738;28;20506;-61
2021/05/15 02:30:34;;;;;;;1.20;1.10;;;12.20;99.90;;;;;;5076123;28;20253;-61
2021/05/15 02:33:00;;;;;;;1.97;1.00;;;12.10;99.90;;;;;;5076396;28;20175;-61
2021/05/15 02:35:26;;;;;;;1.37;1.27;;;12.10;99.90;;;;;;5075986;28;20921;-61
2021/05/15 02:37:52;;;;;;;2.73;1.00;;;12.00;99.90;;;;;;5078616;28;20530;-61
2021/05/15 02:40:18;;;;;;;1.20;1.10;;;12.10;99.90;;;;;;5075539;28;20170;-61
2021/05/15 02:42:44;;;;;;;2.13;1.10;;;12.10;99.90;;;;;;5075926;28;20407;-59
2021/05/15 02:45:12;;;;;;;1.03;0.90;;;12.10;99.90;;;;;;5076379;28;20429;-61
2021/05/15 02:47:38;;;;;;;3.30;1.33;;;12.20;99.90;;;;;;5076055;28;20169;-61
2021/05/15 02:50:05;;;;;;;2.30;0.80;;;12.20;99.90;;;;;;5076063;28;20404;-61
2021/05/15 02:52:30;;;;;;;2.23;1.10;;;12.20;99.90;;;;;;5075704;28;20167;-61
2021/05/15 02:54:56;;;;;;;1.27;0.90;;;12.30;99.90;;;;;;5075389;28;20460;-61
2021/05/15 02:57:22;;;;;;;2.23;0.80;;;12.30;99.90;;;;;;5075455;28;20197;-61
2021/05/15 02:59:47;;;;;;;2.43;1.27;;;12.20;99.90;;;;;;5075951;28;20167;-61
2021/05/15 03:02:13;;;;;;;1.63;1.00;;;12.10;99.90;;;;;;5057062;28;20177;-61
2021/05/15 03:04:38;;;;;;;1.37;1.27;;;12.00;99.90;;;;;;5055709;28;20207;-59
2021/05/15 03:07:04;;;;;;;1.87;0.90;;;12.00;99.90;;;;;;5055647;28;20170;-59
2021/05/15 03:09:30;;;;;;;1.30;0.80;;;12.00;99.90;;;;;;5056412;28;20165;-60
2021/05/15 03:11:55;;;;;;;2.00;1.53;;;11.90;99.90;;;;;;5057398;28;20171;-60
2021/05/15 03:14:21;;;;;;;1.67;1.20;;;11.90;99.90;;;;;;5056927;28;20209;-61
2021/05/15 03:16:46;;;;;;;1.77;1.43;;;11.90;99.90;;;;;;5056004;28;20241;-60
2021/05/15 03:19:12;;;;;;;2.10;1.07;;;11.70;99.90;;;;;;5055233;28;20162;-57
2021/05/15 03:21:38;;;;;;;2.37;1.13;;;11.70;99.90;;;;;;5055158;28;20174;-61
2021/05/15 03:24:04;;;;;;;3.70;1.10;;;11.60;99.90;;;;;;5054968;28;20612;-61
2021/05/15 03:26:29;;;;;;;1.73;1.43;;;11.50;99.90;;;;;;5054223;28;20655;-60
2021/05/15 03:28:55;;;;;;;1.37;1.27;;;11.60;99.90;;;;;;5055025;28;20409;-61
2021/05/15 03:31:21;;;;;;;2.17;1.27;;;11.50;99.90;;;;;;5055031;28;20174;-60
2021/05/15 03:33:46;;;;;;;1.37;1.27;;;11.70;99.90;;;;;;5054844;28;20194;-61
2021/05/15 03:36:12;;;;;;;1.40;1.13;;;11.70;99.90;;;;;;5054933;28;20163;-61
2021/05/15 03:38:37;;;;;;;2.07;1.20;;;11.50;99.90;;;;;;5054930;28;20639;-61
2021/05/15 03:41:03;;;;;;;1.80;1.20;;;11.50;99.90;;;;;;5054825;28;20209;-61
2021/05/15 03:43:29;;;;;;;1.60;1.00;;;11.60;99.90;;;;;;5054972;28;20193;-61
2021/05/15 03:45:55;;;;;;;1.60;1.50;;;11.60;99.90;;;;;;5055010;28;20178;-61
2021/05/15 03:48:21;;;;;;;4.00;1.20;;;11.60;99.90;;;;;;5054984;28;20416;-61
2021/05/15 03:50:51;;;;;;;1.23;1.00;;;11.70;99.90;;;;;;5054678;28;20400;-61
2021/05/15 03:53:18;;;;;;;2.80;1.20;;;11.70;99.90;;;;;;5054497;28;20463;-61
2021/05/15 03:55:44;;;;;;;1.43;1.33;;;11.70;99.90;;;;;;5054075;28;20972;-59
2021/05/15 03:58:10;;;;;;;2.60;1.30;;;11.80;99.90;;;;;;5054813;28;20488;-58
2021/05/15 04:00:36;;;;;;;2.13;1.30;;;11.80;99.90;;;;;;5054442;28;20180;-60
2021/05/15 04:03:01;;;;;;;1.67;1.10;;;11.90;99.90;;;;;;5054386;28;20416;-60
2021/05/15 04:05:27;;;;;;;1.00;0.90;;;12.00;99.90;;;;;;5054219;28;20207;-61
2021/05/15 04:07:53;;;;;;;2.53;1.30;;;12.10;99.90;;;;;;5054641;28;20201;-61
2021/05/15 04:10:19;;;;;;;1.50;1.03;;;12.00;99.90;;;;;;5054138;28;20245;-59
2021/05/15 04:13:08;;;;;;;1.80;1.27;;;12.00;99.90;;;;;;5054295;28;20169;-58
2021/05/15 04:18:09;;;;;;;2.07;1.17;;;12.00;99.90;;;;;;5054416;28;20389;-60
2021/05/15 04:20:39;;;;;;;1.70;1.10;;;12.10;99.90;;;;;;5054162;28;20384;-60
2021/05/15 04:23:06;;;;;;;1.20;1.00;;;12.20;99.90;;;;;;5054078;28;20436;-60
2021/05/15 04:25:32;;;;;;;1.93;1.00;;;12.30;99.90;;;;;;5053497;28;20400;-60
2021/05/15 04:27:58;;;;;;;1.43;0.80;;;12.40;99.90;;;;;;5054122;28;20413;-58
2021/05/15 04:30:24;;;;;;;2.43;1.33;;;12.50;99.90;;;;;;5054707;28;20428;-60
2021/05/15 04:32:51;;;;;;;1.33;1.23;;;12.50;99.90;;;;;;5066514;28;20166;-60
2021/05/15 04:35:16;;;;;;;1.17;0.90;;;12.60;99.90;;;;;;5073633;28;20456;-59
2021/05/15 04:37:42;;;;;;;1.23;1.10;;;12.50;99.90;;;;;;5073557;28;20395;-60
2021/05/15 04:40:09;;;;;;;1.80;1.07;;;12.60;99.90;;;;;;5073541;28;20250;-60
2021/05/15 04:42:38;;;;;;;1.50;1.10;;;12.50;99.90;;;;;;5073345;28;20284;-60
2021/05/15 04:45:07;;;;;;;1.87;1.40;;;12.50;99.90;;;;;;5073813;28;20883;-60
2021/05/15 04:47:32;;;;;;;1.73;1.10;;;12.30;99.90;;;;;;5073476;28;20401;-60
2021/05/15 04:49:58;;;;;;;2.23;1.30;;;12.50;99.90;;;;;;5067109;28;20785;-60
2021/05/15 04:52:24;;;;;;;1.70;1.33;;;12.60;99.90;;;;;;5053937;28;20186;-58
2021/05/15 04:54:50;;;;;;;1.67;1.20;;;12.60;99.90;;;;;;5053205;28;20447;-60
2021/05/15 04:57:16;;;;;;;2.83;1.47;;;12.60;99.90;;;;;;5053226;28;20194;-60
2021/05/15 04:59:43;;;;;;;1.27;1.17;;;12.50;99.90;;;;;;5053953;28;20186;-60
2021/05/15 05:02:09;;;;;;;1.20;1.00;;;12.50;99.90;;;;;;5071626;28;20416;-60
2021/05/15 05:04:34;;;;;;;1.63;1.20;;;12.50;99.90;;;;;;5073254;28;20813;-60
2021/05/15 05:07:00;;;;;;;1.70;1.10;;;12.60;99.90;;;;;;5073364;28;20162;-60
2021/05/15 05:09:25;;;;;;;1.10;1.00;;;12.70;99.90;;;;;;5073073;28;20630;-60
2021/05/15 05:11:51;;;;;;;2.00;1.17;;;12.70;99.90;;;;;;5072976;28;20272;-60
2021/05/15 05:14:17;;;;;;;1.30;1.20;;;12.70;99.90;;;;;;5073295;28;20211;-60
2021/05/15 05:16:42;;;;;;;1.20;1.10;;;12.90;99.90;;;;;;5073166;28;20170;-60
2021/05/15 05:19:11;;;;;;;1.20;0.90;;;13.00;99.90;;;;;;5073409;28;20173;-60
2021/05/15 05:21:37;;;;;;;3.37;0.93;;;13.10;99.90;;;;;;5073391;28;20174;-60
2021/05/15 05:24:03;;;;;;;1.50;0.90;;;13.30;99.90;;;;;;5072959;28;20486;-59
2021/05/15 05:26:29;;;;;;;1.23;0.90;;;13.30;99.90;;;;;;5072845;28;20166;-60
2021/05/15 05:28:55;;;;;;;1.10;1.00;;;13.40;99.90;;;;;;5073035;28;20417;-60
2021/05/15 05:31:20;;;;;;;2.57;1.07;;;13.40;99.90;;;;;;5073048;28;20416;-60
2021/05/15 05:33:46;;;;;;;1.60;0.90;;;13.40;99.90;;;;;;5072884;28;20201;-58
2021/05/15 05:36:12;;;;;;;2.90;1.10;;;13.40;99.90;;;;;;5072990;28;20167;-60
2021/05/15 05:38:38;;;;;;;2.73;1.00;;;13.50;99.90;;;;;;5072957;28;20166;-60
2021/05/15 05:41:03;;;;;;;1.20;1.10;;;13.60;99.90;;;;;;5072491;28;20436;-60
2021/05/15 05:43:29;;;;;;;1.30;1.20;;;13.60;99.90;;;;;;5073113;28;20217;-60
2021/05/15 05:45:55;;;;;;;1.13;0.93;;;13.50;99.90;;;;;;5072936;28;20629;-60
2021/05/15 05:48:20;;;;;;;3.17;1.20;;;13.40;99.90;;;;;;5072877;28;20677;-58
2021/05/15 05:50:47;;;;;;;2.50;0.90;;;13.50;99.90;;;;;;5074714;28;20190;-61
2021/05/15 05:53:13;;;;;;;1.20;1.07;;;13.80;99.90;;;;;;5077297;28;20164;-59
2021/05/15 05:55:42;;;;;;;1.30;0.90;;;13.90;99.90;;;;;;5076679;28;20447;-60
2021/05/15 05:58:07;;;;;;;2.13;1.10;;;13.90;99.90;;;;;;5076534;28;20407;-60
2021/05/15 06:00:33;;;;;;;1.10;0.83;;;13.90;99.90;;;;;;5076673;28;20497;-60
2021/05/15 06:02:58;;;;;;;0.90;0.70;;;13.70;99.90;;;;;;5076803;28;20164;-60
2021/05/15 06:05:24;;;;;;;0.90;0.80;;;13.70;99.90;;;;;;5076584;28;20606;-60
2021/05/15 06:07:50;;;;;;;1.30;0.87;;;13.60;99.90;;;;;;5076875;28;20172;-59
2021/05/15 06:10:15;;;;;;;1.10;0.93;;;13.50;99.90;;;;;;5076339;28;20189;-58
2021/05/15 06:12:41;;;;;;;1.20;1.10;;;13.30;99.90;;;;;;5076317;28;20266;-59
2021/05/15 06:15:07;;;;;;;1.00;0.90;;;13.30;99.90;;;;;;5076244;28;20244;-59
2021/05/15 06:17:33;;;;;;;2.70;0.93;;;13.20;99.90;;;;;;5076724;28;20538;-60
2021/05/15 06:20:00;;;;;;;1.10;0.90;;;13.20;99.90;;;;;;5076360;28;20400;-60
2021/05/15 06:22:25;;;;;;;1.07;0.90;;;13.20;99.90;;;;;;5076584;28;20687;-60
2021/05/15 06:24:51;;;;;;;1.50;0.80;;;13.40;99.90;;;;;;5075868;28;20492;-60
2021/05/15 06:27:17;;;;;;;1.53;0.90;;;13.50;99.90;;;;;;5076075;28;20245;-60
2021/05/15 06:29:43;;;;;;;1.53;0.90;;;13.70;99.90;;;;;;5076099;28;20193;-60
2021/05/15 06:32:09;;;;;;;1.90;0.90;;;13.90;99.90;;;;;;5076115;28;20868;-61
2021/05/15 06:34:36;;;;;;;0.70;0.70;;;14.10;99.90;;;;;;5075854;28;20210;-60
2021/05/15 06:37:01;;;;;;;1.20;0.80;;;14.10;99.90;;;;;;5076113;28;20866;-60
2021/05/15 06:39:27;;;;;;;1.93;1.00;;;14.30;99.90;;;;;;5076030;28;20560;-60
2021/05/15 06:41:53;;;;;;;0.97;0.80;;;14.40;99.90;;;;;;5078478;28;20551;-60
2021/05/15 06:44:18;;;;;;;0.90;0.80;;;14.60;99.90;;;;;;5075908;28;20237;-61
2021/05/15 06:46:44;;;;;;;1.27;0.80;;;14.80;99.90;;;;;;5076059;28;20200;-60
2021/05/15 06:49:10;;;;;;;1.33;0.70;;;14.90;99.90;;;;;;5076504;28;20176;-60
2021/05/15 06:51:35;;;;;;;2.57;0.60;;;15.10;99.90;;;;;;5075751;28;20250;-60
2021/05/15 06:54:01;;;;;;;1.47;0.93;;;15.50;99.90;;;;;;5075743;28;20275;-58
2021/05/15 06:56:27;;;;;;;1.53;0.83;;;15.50;99.90;;;;;;5075172;28;20180;-60
2021/05/15 06:58:52;;;;;;;1.23;0.90;;;15.90;99.90;;;;;;5076234;28;20167;-61
2021/05/15 07:01:18;;;;;;;1.03;0.80;;;16.00;99.90;;;;;;5064607;28;20180;-61
2021/05/15 07:03:44;;;;;;;0.80;0.80;;;16.00;99.90;;;;;;5080271;23;20629;-51
2021/05/15 07:06:09;;;;;;;0.90;0.70;;;15.80;99.90;;;;;;5075344;28;20279;-54
2021/05/15 07:08:35;;;;;;;1.37;1.00;;;15.60;99.90;;;;;;5075820;28;20166;-52
2021/05/15 07:11:00;;;;;;;2.60;0.80;;;15.70;99.90;;;;;;5075696;28;20257;-56
2021/05/15 07:13:26;;;;;;;1.50;0.80;;;15.90;99.90;;;;;;5075835;28;20251;-53
2021/05/15 07:15:52;;;;;;;0.90;0.77;;;15.90;99.90;;;;;;5076328;28;20729;-51
2021/05/15 07:18:21;;;;;;;1.10;0.80;;;16.10;99.90;;;;;;5076015;28;20163;-52
2021/05/15 07:20:46;;;;;;;2.67;1.10;;;16.20;99.90;;;;;;5075824;28;20173;-54
2021/05/15 07:23:12;;;;;;;1.70;0.90;;;16.10;99.90;;;;;;5076495;28;20411;-51
2021/05/15 07:25:38;;;;;;;1.40;1.00;;;16.10;99.90;;;;;;5076113;28;20275;-56
2021/05/15 07:28:04;;;;;;;1.73;0.80;;;15.80;99.90;;;;;;5076212;28;20712;-52
2021/05/15 07:30:30;;;;;;;1.73;0.80;;;15.90;99.90;;;;;;5076383;28;20208;-57
2021/05/15 07:32:57;;;;;;;2.90;0.77;;;15.70;99.90;;;;;;5076166;28;20625;-54
2021/05/15 07:35:27;;;;;;;1.70;1.00;;;15.80;99.90;;;;;;5075310;28;20258;-56
2021/05/15 07:37:52;;;;;;;1.30;0.80;;;15.90;99.90;;;;;;5075551;28;20407;-56
2021/05/15 07:40:19;;;;;;;2.00;1.03;;;16.00;99.90;;;;;;5075338;28;20540;-55
2021/05/15 07:42:45;;;;;;;1.00;0.63;;;16.10;99.90;;;;;;5063578;28;20173;-56
2021/05/15 07:45:12;;;;;;;5.77;1.17;;;16.30;99.80;;;;;;5074433;28;20478;-56
2021/05/15 07:47:39;;;;;;;1.10;0.80;;;16.00;99.90;;;;;;5075218;28;20401;-56
2021/05/15 07:50:06;;;;;;;1.00;0.80;;;16.00;99.90;;;;;;5075378;28;20429;-55
2021/05/15 07:52:31;;;;;;;1.87;0.90;;;16.10;99.90;;;;;;5074659;28;20414;-57
2021/05/15 07:54:57;;;;;;;1.40;0.73;;;16.00;99.90;;;;;;5074386;28;20819;-55
2021/05/15 07:57:23;;;;;;;1.03;0.77;;;16.30;99.90;;;;;;5074368;28;20173;-56
2021/05/15 07:59:50;;;;;;;1.60;0.87;;;16.40;99.60;;;;;;5074535;28;20595;-57
2021/05/15 08:02:15;;;;;;;0.90;0.70;;;16.40;99.90;;;;;;5075065;28;20414;-56
2021/05/15 08:04:41;;;;;;;2.20;0.73;;;16.70;99.90;;;;;;5074492;28;20454;-57
2021/05/15 08:07:06;;;;;;;1.83;0.90;;;16.60;99.00;;;;;;5072405;28;20184;-57
2021/05/15 08:09:32;;;;;;;2.07;1.03;;;16.50;99.40;;;;;;5066821;28;20195;-57
2021/05/15 08:11:58;;;;;;;0.90;0.80;;;16.30;99.10;;;;;;5074120;28;20171;-57
2021/05/15 08:14:24;;;;;;;1.40;0.80;;;16.10;99.50;;;;;;5073383;28;20454;-56
2021/05/15 08:16:50;;;;;;;2.07;1.10;;;16.10;99.70;;;;;;5074400;28;20541;-56
2021/05/15 08:19:15;;;;;;;2.10;0.80;;;16.20;99.70;;;;;;5074384;28;20403;-57
2021/05/15 08:21:41;;;;;;;1.40;0.80;;;16.10;99.20;;;;;;5074217;28;20395;-57
2021/05/15 08:24:16;;;;;;;1.20;0.83;;;16.40;99.90;;;;;;5074675;28;20271;-54
2021/05/15 08:26:44;;;;;;;3.30;0.80;;;16.40;99.00;;;;;;5056594;28;20223;-57
2021/05/15 08:29:12;;;;;;;1.23;0.97;;;16.20;99.80;;;;;;5073836;28;20417;-57
2021/05/15 08:31:38;;;;;;;1.20;0.80;;;16.40;99.30;;;;;;5060191;28;20827;-56
2021/05/15 08:34:03;;;;;;;1.23;1.00;;;16.80;99.00;;;;;;5053940;28;20455;-56
2021/05/15 08:36:29;;;;;;;2.53;1.37;;;16.70;98.90;;;;;;5054020;28;20887;-55
2021/05/15 08:38:56;;;;;;;1.93;0.80;;;16.60;98.40;;;;;;5057270;28;20211;-55
2021/05/15 08:41:21;;;;;;;1.37;1.00;;;16.40;98.90;;;;;;5075294;28;20164;-55
2021/05/15 08:43:47;;;;;;;2.30;1.43;;;16.40;98.70;;;;;;5073619;28;20833;-53
2021/05/15 08:46:14;;;;;;;1.63;0.60;;;16.60;99.20;;;;;;5073923;28;20180;-55
2021/05/15 08:48:42;;;;;;;1.13;0.70;;;16.20;99.20;;;;;;5073990;28;20406;-50
2021/05/15 08:51:09;;;;;;;2.03;1.17;;;16.20;99.30;;;;;;5073780;28;20411;-50
2021/05/15 08:53:40;;;;;;;0.90;0.80;;;16.30;99.70;;;;;;5073486;28;20437;-55
2021/05/15 08:56:09;;;;;;;1.47;0.80;;;16.40;99.10;;;;;;5074434;28;20395;-52
2021/05/15 08:58:37;;;;;;;4.00;1.00;;;16.60;98.50;;;;;;5072935;28;20404;-50
2021/05/15 09:01:04;;;;;;;1.10;0.93;;;16.60;98.10;;;;;;5064793;28;20796;-51
2021/05/15 09:03:29;;;;;;;1.80;0.90;;;16.30;98.50;;;;;;5053742;28;20406;-49
2021/05/15 09:05:55;;;;;;;1.97;1.10;;;16.50;99.70;;;;;;5071654;28;20445;-52
2021/05/15 09:08:21;;;;;;;2.07;1.10;;;16.80;99.10;;;;;;5072736;28;20175;-51
2021/05/15 09:10:49;;;;;;;1.50;1.23;;;17.10;98.60;;;;;;5072759;28;20170;-52
2021/05/15 09:13:26;;;;;;;1.40;0.90;;;17.30;98.20;;;;;;5072336;28;20403;-51
2021/05/15 09:15:59;;;;;;;1.23;0.90;;;17.20;97.70;;;;;;5072701;28;20471;-51
2021/05/15 09:18:26;;;;;;;1.73;0.83;;;17.10;99.10;;;;;;5072610;28;20383;-52
2021/05/15 09:20:55;;;;;;;1.40;1.00;;;17.40;97.40;;;;;;5072568;28;20826;-53
2021/05/15 09:23:23;;;;;;;1.17;0.90;;;17.50;97.60;;;;;;5072986;28;20455;-53
2021/05/15 09:25:57;;;;;;;1.73;1.00;;;18.00;97.40;;;;;;5071376;28;20481;-50
2021/05/15 09:28:57;;;;;;;1.37;1.27;;;17.60;96.10;;;;;;5071760;28;20468;-52
2021/05/15 09:31:25;;;;;;;1.13;0.87;;;17.60;96.70;;;;;;5072456;28;20423;-50
2021/05/15 09:34:00;;;;;;;2.03;0.70;;;18.00;96.50;;;;;;5072700;28;20811;-51
2021/05/15 09:36:43;;;;;;;1.10;0.87;;;18.00;95.90;;;;;;5072433;28;20410;-56
2021/05/15 09:39:11;;;;;;;1.00;0.80;;;18.00;96.60;;;;;;5072594;28;20408;-55
2021/05/15 09:41:45;;;;;;;2.43;1.20;;;18.10;96.50;;;;;;5071998;28;20411;-53
2021/05/15 09:44:14;;;;;;;3.20;1.00;;;18.50;96.20;;;;;;5071936;28;20973;-54
2021/05/15 09:46:42;;;;;;;1.20;1.10;;;18.40;95.50;;;;;;5072300;28;20408;-55
2021/05/15 09:49:09;;;;;;;0.80;0.70;;;18.40;95.70;;;;;;5072160;28;20439;-54
2021/05/15 09:51:35;;;;;;;1.53;1.10;;;18.60;97.10;;;;;;5072117;28;20412;-55
2021/05/15 09:54:15;;;;;;;1.47;1.00;;;18.70;95.90;;;;;;5072288;28;20559;-56
2021/05/15 09:56:41;;;;;;;1.83;1.17;;;18.50;95.40;;;;;;5072220;28;20758;-55
2021/05/15 09:59:07;;;;;;;1.33;1.23;;;19.00;95.60;;;;;;5071704;28;20487;-53
2021/05/15 10:01:45;;;;;;;2.03;1.03;;;18.80;94.30;;;;;;5072086;28;20443;-53
2021/05/15 10:04:11;;;;;;;1.50;0.80;;;18.70;95.20;;;;;;5052082;28;566134;-56
2021/05/15 10:06:37;;;;;;;3.00;1.00;;;19.10;95.10;;;;;;5073124;28;20872;-55
2021/05/15 10:09:03;;;;;;;2.30;0.80;;;18.80;95.00;;;;;;5073062;28;20414;-56
2021/05/15 10:11:30;;;;;;;1.37;1.00;;;18.30;93.70;;;;;;5072857;28;20544;-55
2021/05/15 10:13:56;;;;;;;1.83;1.07;;;17.90;94.70;;;;;;5072114;28;20490;-56
2021/05/15 10:16:21;;;;;;;1.40;0.80;;;18.00;95.20;;;;;;5072982;28;20435;-54
2021/05/15 10:18:48;;;;;;;2.70;1.20;;;17.90;94.20;;;;;;5072983;28;20175;-55
2021/05/15 10:21:14;;;;;;;1.13;0.83;;;18.10;94.20;;;;;;5073104;28;20576;-54
2021/05/15 10:23:44;;;;;;;1.73;0.80;;;18.10;94.50;;;;;;5072735;28;20443;-55
2021/05/15 10:26:16;;;;;;;1.70;1.00;;;18.80;95.50;;;;;;5073047;28;20170;-57
2021/05/15 10:28:43;;;;;;;1.40;0.80;;;18.90;95.20;;;;;;5054360;28;20434;-55
2021/05/15 10:31:13;;;;;;;3.70;1.50;;;18.80;94.60;;;;;;5074892;28;20813;-55
2021/05/15 10:33:40;;;;;;;1.93;0.77;;;18.60;94.00;;;;;;5052722;28;20458;-55
2021/05/15 10:36:17;;;;;;;1.20;0.80;;;18.50;94.40;;;;;;5053661;28;20421;-55
2021/05/15 10:38:44;;;;;;;2.93;0.97;;;18.80;94.20;;;;;;5056157;28;20389;-55
2021/05/15 10:41:13;;;;;;;1.87;0.90;;;18.80;93.90;;;;;;5056137;28;20400;-57
2021/05/15 10:43:40;;;;;;;3.30;1.40;;;18.70;92.70;;;;;;5055888;28;20409;-55
2021/05/15 10:46:17;;;;;;;1.90;1.10;;;19.00;92.90;;;;;;5056237;28;20427;-55
2021/05/15 10:48:55;;;;;;;2.03;0.90;;;19.40;92.60;;;;;;5056169;28;20435;-57
2021/05/15 10:51:39;;;;;;;2.20;0.83;;;19.90;92.50;;;;;;5056307;28;20390;-56
2021/05/15 10:54:06;;;;;;;1.23;1.03;;;19.60;91.20;;;;;;5056090;28;20483;-55
2021/05/15 10:56:32;;;;;;;2.80;0.80;;;18.80;92.00;;;;;;5056294;28;20484;-53
2021/05/15 10:59:19;;;;;;;5.30;1.20;;;18.90;92.30;;;;;;5055368;28;20408;-57
2021/05/15 11:01:50;;;;;;;4.43;1.03;;;18.50;93.10;;;;;;5069608;28;20396;-57
2021/05/15 11:04:47;;;;;;;2.23;1.20;;;18.50;94.50;;;;;;5073896;28;20478;-55
2021/05/15 11:07:13;;;;;;;2.63;1.20;;;18.50;92.90;;;;;;5041451;28;20452;-56
2021/05/15 11:09:50;;;;;;;1.40;1.10;;;18.40;93.10;;;;;;5075551;28;20446;-57
2021/05/15 11:12:16;;;;;;;1.60;1.10;;;18.10;91.80;;;;;;5075652;28;20158;-54
2021/05/15 11:14:47;;;;;;;2.87;1.00;;;18.00;92.50;;;;;;5075328;28;20463;-54
2021/05/15 11:17:19;;;;;;;2.60;1.17;;;18.10;92.00;;;;;;5075989;28;20432;-56
2021/05/15 11:20:04;;;;;;;2.77;1.50;;;17.90;92.20;;;;;;5075683;28;20388;-56
2021/05/15 11:22:51;;;;;;;3.07;1.30;;;17.60;92.00;;;;;;5055401;28;20407;-54
2021/05/15 11:25:27;;;;;;;1.73;1.13;;;17.40;92.10;;;;;;5055459;28;20440;-54
2021/05/15 11:27:58;;;;;;;1.93;0.90;;;17.40;91.50;;;;;;5055296;28;20791;-57
2021/05/15 11:30:29;;;;;;;3.60;1.20;;;17.60;91.60;;;;;;5058947;28;20422;-56
2021/05/15 11:33:06;;;;;;;3.47;1.30;;;17.90;92.10;;;;;;5075414;28;20430;-57
2021/05/15 11:35:36;;;;;;;2.47;1.53;;;17.80;91.60;;;;;;5075215;28;20455;-56
2021/05/15 11:38:03;;;;;;;5.20;4.30;;;18.10;92.70;;;;;;5075430;28;20396;-54
2021/05/15 11:40:30;;;;;;;3.87;1.90;;;18.10;90.80;;;;;;5075090;28;20503;-57
2021/05/15 11:42:56;;;;;;;1.63;0.97;;;18.20;91.90;;;;;;5074946;28;20880;-56
2021/05/15 11:45:31;;;;;;;3.60;1.20;;;18.90;91.20;;;;;;5075035;28;20436;-57
2021/05/15 11:48:21;;;;;;;2.07;1.10;;;18.90;88.90;;;;;;5074273;28;20418;-57
2021/05/15 11:51:01;;;;;;;2.10;1.50;;;19.10;89.20;;;;;;5075439;28;20393;-56
2021/05/15 11:53:28;;;;;;;4.50;1.40;;;19.90;90.80;;;;;;5075158;28;20400;-56
2021/05/15 11:55:55;;;;;;;1.20;1.10;;;20.70;89.00;;;;;;5075112;28;20551;-56
2021/05/15 11:58:21;;;;;;;1.57;0.97;;;20.50;87.10;;;;;;5074757;28;20411;-56
2021/05/15 12:00:47;;;;;;;1.20;0.90;;;20.40;85.80;;;;;;5074512;28;20962;-53
2021/05/15 12:03:22;;;;;;;1.47;1.20;;;20.10;85.40;;;;;;5074924;28;20862;-55
2021/05/15 12:05:49;;;;;;;2.07;1.67;;;20.20;87.30;;;;;;5074742;28;20471;-57
2021/05/15 12:08:15;;;;;;;1.67;1.10;;;20.20;85.80;;;;;;5074814;28;20420;-55
2021/05/15 12:10:41;;;;;;;2.40;1.53;;;20.00;86.40;;;;;;5074912;28;20416;-57
2021/05/15 12:13:08;;;;;;;2.47;1.77;;;20.20;86.50;;;;;;5074563;28;20166;-56
2021/05/15 12:15:37;;;;;;;1.47;1.20;;;20.40;87.70;;;;;;5074137;28;20459;-53
2021/05/15 12:18:04;;;;;;;2.70;1.00;;;20.60;87.50;;;;;;5074221;28;20907;-56
2021/05/15 12:20:33;;;;;;;2.70;1.23;;;20.70;85.00;;;;;;5074400;28;20911;-57
2021/05/15 12:23:15;;;;;;;2.63;1.07;;;20.50;84.90;;;;;;5056203;28;20499;-57
2021/05/15 12:25:55;;;;;;;1.27;1.17;;;20.30;84.70;;;;;;5076621;28;20435;-56
2021/05/15 12:28:22;;;;;;;1.67;1.10;;;20.50;83.20;;;;;;5074177;28;20407;-57
2021/05/15 12:30:48;;;;;;;2.50;1.00;;;21.30;82.10;;;;;;5067015;28;20420;-56
2021/05/15 12:33:17;;;;;;;2.13;1.20;;;21.40;82.20;;;;;;5054180;28;20405;-55
2021/05/15 12:35:55;;;;;;;3.37;1.50;;;21.90;81.40;;;;;;5054187;28;20983;-57
2021/05/15 12:38:21;;;;;;;2.07;1.00;;;21.70;80.50;;;;;;5054296;28;20419;-57
2021/05/15 12:40:46;;;;;;;2.43;0.80;;;21.40;79.00;;;;;;5054340;28;20405;-57
2021/05/15 12:43:12;;;;;;;1.90;1.27;;;21.10;79.40;;;;;;5053663;28;20171;-53
2021/05/15 12:45:40;;;;;;;1.37;0.80;;;20.70;79.80;;;;;;5053492;28;20190;-57
2021/05/15 12:48:35;;;;;;;1.73;1.20;;;20.70;81.10;;;;;;5054080;28;20413;-56
2021/05/15 12:51:03;;;;;;;1.63;0.90;;;20.80;80.50;;;;;;5053791;28;20825;-57
2021/05/15 12:53:30;;;;;;;2.20;0.90;;;20.90;81.10;;;;;;5054115;28;20415;-56